sensor_id;sensor_type;location;lat;lon;timestamp;pressure;altitude;pressure_sealevel;temperature;humidity
26719;BME280;14326;50.794;6.060;2023-04-05T00:04:16;100418.69;;;1.94;87.92
26719;BME280;14326;50.794;6.060;2023-04-05T00:07:15;100413.94;;;2.03;87.08
26719;BME280;14326;50.794;6.060;2023-04-05T00:10:15;100405.16;;;2.03;87.84
26719;BME280;14326;50.794;6.060;2023-04-05T00:18:21;100404.16;;;2.01;87.62
26719;BME280;14326;50.794;6.060;2023-04-05T00:24:16;100386.88;;;2.04;87.54
26719;BME280;14326;50.794;6.060;2023-04-05T00:26:49;100395.91;;;2.10;87.69
26719;BME280;14326;50.794;6.060;2023-04-05T00:29:21;100391.31;;;2.05;88.06
26719;BME280;14326;50.794;6.060;2023-04-05T00:31:51;100391.88;;;2.00;87.73
26719;BME280;14326;50.794;6.060;2023-04-05T00:34:26;100376.47;;;2.06;87.26
26719;BME280;14326;50.794;6.060;2023-04-05T00:36:54;100378.78;;;2.00;87.74
26719;BME280;14326;50.794;6.060;2023-04-05T00:39:24;100371.53;;;1.96;88.52
26719;BME280;14326;50.794;6.060;2023-04-05T00:41:52;100379.03;;;1.74;87.74
26719;BME280;14326;50.794;6.060;2023-04-05T00:44:23;100375.91;;;1.50;88.31
26719;BME280;14326;50.794;6.060;2023-04-05T00:46:54;100377.34;;;1.59;89.49
26719;BME280;14326;50.794;6.060;2023-04-05T00:49:27;100383.56;;;1.76;89.65
26719;BME280;14326;50.794;6.060;2023-04-05T00:52:06;100382.81;;;1.79;89.67
26719;BME280;14326;50.794;6.060;2023-04-05T00:54:40;100392.63;;;1.83;89.29
26719;BME280;14326;50.794;6.060;2023-04-05T00:57:13;100382.81;;;1.79;89.00
26719;BME280;14326;50.794;6.060;2023-04-05T00:59:54;100381.00;;;1.78;88.94
26719;BME280;14326;50.794;6.060;2023-04-05T01:02:41;100384.47;;;1.62;88.68
26719;BME280;14326;50.794;6.060;2023-04-05T01:08:59;100379.75;;;1.71;89.85
26719;BME280;14326;50.794;6.060;2023-04-05T01:11:37;100373.28;;;1.64;89.84
26719;BME280;14326;50.794;6.060;2023-04-05T01:17:07;100353.94;;;1.62;89.07
26719;BME280;14326;50.794;6.060;2023-04-05T01:19:35;100362.47;;;1.44;89.57
26719;BME280;14326;50.794;6.060;2023-04-05T01:31:46;100359.09;;;0.86;91.64
26719;BME280;14326;50.794;6.060;2023-04-05T01:37:36;100362.06;;;1.07;91.68
26719;BME280;14326;50.794;6.060;2023-04-05T01:40:26;100352.59;;;1.09;91.41
26719;BME280;14326;50.794;6.060;2023-04-05T01:43:01;100358.69;;;1.24;91.40
26719;BME280;14326;50.794;6.060;2023-04-05T01:48:31;100363.88;;;1.22;91.17
26719;BME280;14326;50.794;6.060;2023-04-05T01:50:58;100358.63;;;1.22;91.13
26719;BME280;14326;50.794;6.060;2023-04-05T01:53:25;100364.84;;;1.24;91.21
26719;BME280;14326;50.794;6.060;2023-04-05T01:59:14;100356.09;;;0.95;90.42
26719;BME280;14326;50.794;6.060;2023-04-05T02:01:53;100363.34;;;0.84;90.97
26719;BME280;14326;50.794;6.060;2023-04-05T02:04:24;100368.66;;;0.86;91.00
26719;BME280;14326;50.794;6.060;2023-04-05T02:06:54;100355.38;;;0.82;91.29
26719;BME280;14326;50.794;6.060;2023-04-05T02:12:42;100357.03;;;0.80;91.20
26719;BME280;14326;50.794;6.060;2023-04-05T02:15:39;100356.03;;;0.78;91.73
26719;BME280;14326;50.794;6.060;2023-04-05T02:18:27;100356.94;;;0.94;91.90
26719;BME280;14326;50.794;6.060;2023-04-05T02:21:17;100352.94;;;1.00;91.13
26719;BME280;14326;50.794;6.060;2023-04-05T02:24:01;100351.53;;;0.76;90.72
26719;BME280;14326;50.794;6.060;2023-04-05T02:27:03;100347.69;;;0.71;91.47
26719;BME280;14326;50.794;6.060;2023-04-05T02:29:51;100345.63;;;0.65;91.88
26719;BME280;14326;50.794;6.060;2023-04-05T02:32:48;100351.31;;;0.58;91.25
26719;BME280;14326;50.794;6.060;2023-04-05T02:35:48;100350.41;;;0.72;91.19
26719;BME280;14326;50.794;6.060;2023-04-05T02:38:31;100339.38;;;0.49;90.87
26719;BME280;14326;50.794;6.060;2023-04-05T02:41:18;100349.31;;;0.54;91.99
26719;BME280;14326;50.794;6.060;2023-04-05T02:43:56;100339.94;;;0.58;92.32
26719;BME280;14326;50.794;6.060;2023-04-05T02:46:39;100352.06;;;0.70;90.96
26719;BME280;14326;50.794;6.060;2023-04-05T02:49:32;100342.66;;;0.74;89.81
26719;BME280;14326;50.794;6.060;2023-04-05T02:52:16;100347.53;;;0.68;89.88
26719;BME280;14326;50.794;6.060;2023-04-05T02:55:06;100341.94;;;0.62;90.09
26719;BME280;14326;50.794;6.060;2023-04-05T02:57:32;100340.13;;;0.46;90.50
26719;BME280;14326;50.794;6.060;2023-04-05T02:59:59;100346.22;;;0.32;90.28
26719;BME280;14326;50.794;6.060;2023-04-05T03:02:33;100340.44;;;0.23;91.33
26719;BME280;14326;50.794;6.060;2023-04-05T03:05:01;100341.66;;;0.15;92.13
26719;BME280;14326;50.794;6.060;2023-04-05T03:07:34;100334.25;;;0.08;91.93
26719;BME280;14326;50.794;6.060;2023-04-05T03:10:09;100333.28;;;0.06;92.46
26719;BME280;14326;50.794;6.060;2023-04-05T03:12:39;100332.38;;;0.20;92.25
26719;BME280;14326;50.794;6.060;2023-04-05T03:15:09;100332.22;;;0.31;92.34
26719;BME280;14326;50.794;6.060;2023-04-05T03:17:58;100320.53;;;0.39;92.35
26719;BME280;14326;50.794;6.060;2023-04-05T03:20:54;100327.56;;;0.40;91.86
26719;BME280;14326;50.794;6.060;2023-04-05T03:26:51;100329.09;;;0.37;91.66
26719;BME280;14326;50.794;6.060;2023-04-05T03:35:37;100327.59;;;0.13;91.36
26719;BME280;14326;50.794;6.060;2023-04-05T03:38:14;100326.31;;;0.06;91.57
26719;BME280;14326;50.794;6.060;2023-04-05T03:40:59;100323.09;;;0.10;91.78
26719;BME280;14326;50.794;6.060;2023-04-05T03:43:39;100310.56;;;0.19;91.81
26719;BME280;14326;50.794;6.060;2023-04-05T03:46:08;100306.97;;;0.17;91.80
26719;BME280;14326;50.794;6.060;2023-04-05T03:48:40;100322.03;;;0.21;91.62
26719;BME280;14326;50.794;6.060;2023-04-05T03:51:06;100321.94;;;0.20;91.78
26719;BME280;14326;50.794;6.060;2023-04-05T03:53:36;100307.94;;;0.19;92.32
26719;BME280;14326;50.794;6.060;2023-04-05T03:56:03;100309.00;;;0.08;91.73
26719;BME280;14326;50.794;6.060;2023-04-05T03:58:41;100314.91;;;-0.09;91.91
26719;BME280;14326;50.794;6.060;2023-04-05T04:01:22;100309.88;;;-0.06;92.66
26719;BME280;14326;50.794;6.060;2023-04-05T04:04:33;100302.50;;;0.02;92.32
26719;BME280;14326;50.794;6.060;2023-04-05T04:07:17;100298.84;;;-0.15;91.50
26719;BME280;14326;50.794;6.060;2023-04-05T04:09:52;100303.25;;;-0.14;92.74
26719;BME280;14326;50.794;6.060;2023-04-05T04:12:20;100297.03;;;-0.16;92.41
26719;BME280;14326;50.794;6.060;2023-04-05T04:14:49;100307.28;;;-0.06;92.31
26719;BME280;14326;50.794;6.060;2023-04-05T04:17:31;100302.69;;;0.05;91.93
26719;BME280;14326;50.794;6.060;2023-04-05T04:20:02;100306.13;;;0.04;91.19
26719;BME280;14326;50.794;6.060;2023-04-05T04:22:36;100298.22;;;-0.11;91.86
26719;BME280;14326;50.794;6.060;2023-04-05T04:25:11;100293.34;;;-0.20;91.18
26719;BME280;14326;50.794;6.060;2023-04-05T04:28:00;100302.00;;;-0.34;92.46
26719;BME280;14326;50.794;6.060;2023-04-05T04:30:41;100295.31;;;-0.44;93.27
26719;BME280;14326;50.794;6.060;2023-04-05T04:33:15;100296.63;;;-0.37;92.82
26719;BME280;14326;50.794;6.060;2023-04-05T04:35:55;100295.34;;;-0.29;92.90
26719;BME280;14326;50.794;6.060;2023-04-05T04:38:29;100287.44;;;-0.30;93.38
26719;BME280;14326;50.794;6.060;2023-04-05T04:40:58;100294.72;;;-0.53;93.15
26719;BME280;14326;50.794;6.060;2023-04-05T04:43:29;100294.78;;;-0.38;92.87
26719;BME280;14326;50.794;6.060;2023-04-05T04:46:13;100297.03;;;-0.44;93.18
26719;BME280;14326;50.794;6.060;2023-04-05T04:48:43;100296.22;;;-0.43;92.43
26719;BME280;14326;50.794;6.060;2023-04-05T04:51:20;100297.03;;;-0.44;92.73
26719;BME280;14326;50.794;6.060;2023-04-05T04:53:51;100294.53;;;-0.56;93.06
26719;BME280;14326;50.794;6.060;2023-04-05T04:56:29;100303.66;;;-0.36;93.45
26719;BME280;14326;50.794;6.060;2023-04-05T04:59:03;100298.81;;;-0.30;93.30
26719;BME280;14326;50.794;6.060;2023-04-05T05:01:31;100300.00;;;-0.25;93.86
26719;BME280;14326;50.794;6.060;2023-04-05T05:04:14;100291.78;;;-0.31;92.92
26719;BME280;14326;50.794;6.060;2023-04-05T05:07:05;100291.94;;;-0.28;93.15
26719;BME280;14326;50.794;6.060;2023-04-05T05:09:33;100302.34;;;-0.43;92.73
26719;BME280;14326;50.794;6.060;2023-04-05T05:12:00;100303.28;;;-0.55;93.15
26719;BME280;14326;50.794;6.060;2023-04-05T05:14:44;100306.13;;;-0.65;93.77
26719;BME280;14326;50.794;6.060;2023-04-05T05:17:26;100309.31;;;-0.69;94.31
26719;BME280;14326;50.794;6.060;2023-04-05T05:20:12;100311.34;;;-0.65;94.05
26719;BME280;14326;50.794;6.060;2023-04-05T05:23:10;100318.94;;;-0.42;93.91
26719;BME280;14326;50.794;6.060;2023-04-05T05:25:50;100314.41;;;-0.45;93.28
26719;BME280;14326;50.794;6.060;2023-04-05T05:28:28;100309.41;;;-0.42;94.19
26719;BME280;14326;50.794;6.060;2023-04-05T05:30:55;100313.19;;;-0.36;94.41
26719;BME280;14326;50.794;6.060;2023-04-05T05:33:40;100308.00;;;0.06;95.08
26719;BME280;14326;50.794;6.060;2023-04-05T05:36:20;100308.16;;;0.37;93.48
26719;BME280;14326;50.794;6.060;2023-04-05T05:39:08;100300.75;;;0.59;92.04
26719;BME280;14326;50.794;6.060;2023-04-05T05:41:44;100302.16;;;1.13;91.00
26719;BME280;14326;50.794;6.060;2023-04-05T05:44:14;100295.13;;;1.90;85.91
26719;BME280;14326;50.794;6.060;2023-04-05T05:49:12;100284.09;;;3.50;77.97
26719;BME280;14326;50.794;6.060;2023-04-05T05:51:55;100280.16;;;4.16;73.68
26719;BME280;14326;50.794;6.060;2023-04-05T05:54:32;100274.22;;;4.81;69.94
26719;BME280;14326;50.794;6.060;2023-04-05T05:57:23;100265.31;;;5.41;67.29
26719;BME280;14326;50.794;6.060;2023-04-05T06:00:06;100267.28;;;5.47;64.84
26719;BME280;14326;50.794;6.060;2023-04-05T06:02:56;100267.44;;;5.96;63.97
26719;BME280;14326;50.794;6.060;2023-04-05T06:05:50;100265.09;;;6.03;62.76
26719;BME280;14326;50.794;6.060;2023-04-05T06:08:32;100263.81;;;6.40;62.39
26719;BME280;14326;50.794;6.060;2023-04-05T06:10:59;100266.41;;;6.38;61.30
26719;BME280;14326;50.794;6.060;2023-04-05T06:13:45;100262.91;;;6.88;59.05
26719;BME280;14326;50.794;6.060;2023-04-05T06:16:18;100265.69;;;6.68;59.21
26719;BME280;14326;50.794;6.060;2023-04-05T06:18:47;100260.13;;;6.85;59.73
26719;BME280;14326;50.794;6.060;2023-04-05T06:21:31;100264.09;;;6.47;60.27
26719;BME280;14326;50.794;6.060;2023-04-05T06:24:17;100270.75;;;5.68;63.74
26719;BME280;14326;50.794;6.060;2023-04-05T06:26:59;100275.44;;;5.10;66.73
26719;BME280;14326;50.794;6.060;2023-04-05T06:30:06;100270.09;;;4.67;70.11
26719;BME280;14326;50.794;6.060;2023-04-05T06:32:58;100273.81;;;4.32;71.81
26719;BME280;14326;50.794;6.060;2023-04-05T06:35:37;100274.97;;;4.18;73.10
26719;BME280;14326;50.794;6.060;2023-04-05T06:38:19;100269.06;;;4.04;74.31
26719;BME280;14326;50.794;6.060;2023-04-05T06:40:59;100266.63;;;3.89;74.28
26719;BME280;14326;50.794;6.060;2023-04-05T06:43:26;100264.28;;;3.95;73.97
26719;BME280;14326;50.794;6.060;2023-04-05T06:51:10;100262.81;;;5.89;68.19
26719;BME280;14326;50.794;6.060;2023-04-05T06:53:38;100254.56;;;6.78;62.69
26719;BME280;14326;50.794;6.060;2023-04-05T06:56:05;100245.31;;;7.72;58.61
26719;BME280;14326;50.794;6.060;2023-04-05T06:58:32;100245.56;;;8.10;54.60
26719;BME280;14326;50.794;6.060;2023-04-05T07:00:59;100259.56;;;8.66;53.29
26719;BME280;14326;50.794;6.060;2023-04-05T07:03:26;100236.03;;;9.14;52.26
26719;BME280;14326;50.794;6.060;2023-04-05T07:05:54;100232.22;;;9.38;49.18
26719;BME280;14326;50.794;6.060;2023-04-05T07:08:21;100237.56;;;9.77;49.58
26719;BME280;14326;50.794;6.060;2023-04-05T07:10:50;100234.50;;;10.00;47.73
26719;BME280;14326;50.794;6.060;2023-04-05T07:13:17;100232.75;;;10.42;44.68
26719;BME280;14326;50.794;6.060;2023-04-05T07:15:58;100238.38;;;10.59;45.76
26719;BME280;14326;50.794;6.060;2023-04-05T07:18:25;100235.88;;;10.68;44.57
26719;BME280;14326;50.794;6.060;2023-04-05T07:20:55;100237.50;;;11.09;44.00
26719;BME280;14326;50.794;6.060;2023-04-05T07:23:24;100232.66;;;11.38;43.38
26719;BME280;14326;50.794;6.060;2023-04-05T07:25:53;100233.72;;;11.48;43.38
26719;BME280;14326;50.794;6.060;2023-04-05T07:28:19;100231.31;;;11.68;43.28
26719;BME280;14326;50.794;6.060;2023-04-05T07:30:48;100230.63;;;11.78;43.05
26719;BME280;14326;50.794;6.060;2023-04-05T07:33:14;100242.47;;;12.00;42.94
26719;BME280;14326;50.794;6.060;2023-04-05T07:35:41;100233.75;;;12.14;42.49
26719;BME280;14326;50.794;6.060;2023-04-05T07:38:08;100241.94;;;12.28;42.25
26719;BME280;14326;50.794;6.060;2023-04-05T07:40:35;100243.91;;;12.43;42.06
26719;BME280;14326;50.794;6.060;2023-04-05T07:43:03;100243.00;;;12.41;42.62
26719;BME280;14326;50.794;6.060;2023-04-05T07:45:30;100239.81;;;12.72;41.91
26719;BME280;14326;50.794;6.060;2023-04-05T07:47:57;100247.38;;;12.37;41.63
26719;BME280;14326;50.794;6.060;2023-04-05T07:50:24;100256.38;;;12.45;42.66
26719;BME280;14326;50.794;6.060;2023-04-05T07:52:51;100252.00;;;12.52;42.11
26719;BME280;14326;50.794;6.060;2023-04-05T07:55:17;100253.00;;;12.60;41.17
26719;BME280;14326;50.794;6.060;2023-04-05T07:57:44;100254.78;;;12.59;41.23
26719;BME280;14326;50.794;6.060;2023-04-05T08:00:14;100262.63;;;12.46;40.87
26719;BME280;14326;50.794;6.060;2023-04-05T08:02:41;100262.78;;;12.59;40.95
26719;BME280;14326;50.794;6.060;2023-04-05T08:05:08;100260.97;;;12.57;40.08
26719;BME280;14326;50.794;6.060;2023-04-05T08:07:34;100256.34;;;12.41;41.10
26719;BME280;14326;50.794;6.060;2023-04-05T08:10:01;100253.94;;;12.66;41.66
26719;BME280;14326;50.794;6.060;2023-04-05T08:12:31;100264.41;;;12.47;41.80
26719;BME280;14326;50.794;6.060;2023-04-05T08:14:58;100266.09;;;12.39;42.11
26719;BME280;14326;50.794;6.060;2023-04-05T08:17:31;100262.69;;;12.52;41.34
26719;BME280;14326;50.794;6.060;2023-04-05T08:20:00;100258.22;;;12.48;40.77
26719;BME280;14326;50.794;6.060;2023-04-05T08:22:36;100259.16;;;12.53;39.91
26719;BME280;14326;50.794;6.060;2023-04-05T08:25:07;100257.06;;;12.27;42.26
26719;BME280;14326;50.794;6.060;2023-04-05T08:27:33;100250.94;;;12.35;42.11
26719;BME280;14326;50.794;6.060;2023-04-05T08:30:10;100256.19;;;12.31;42.29
26719;BME280;14326;50.794;6.060;2023-04-05T08:32:43;100253.63;;;12.38;41.56
26719;BME280;14326;50.794;6.060;2023-04-05T08:35:13;100259.56;;;12.15;40.76
26719;BME280;14326;50.794;6.060;2023-04-05T08:37:43;100248.94;;;12.20;41.21
26719;BME280;14326;50.794;6.060;2023-04-05T08:40:16;100255.69;;;11.92;40.01
26719;BME280;14326;50.794;6.060;2023-04-05T08:42:51;100248.88;;;12.12;40.00
26719;BME280;14326;50.794;6.060;2023-04-05T08:45:33;100247.47;;;12.42;39.41
26719;BME280;14326;50.794;6.060;2023-04-05T08:48:31;100256.72;;;12.03;39.69
26719;BME280;14326;50.794;6.060;2023-04-05T08:51:20;100256.97;;;11.60;41.02
26719;BME280;14326;50.794;6.060;2023-04-05T08:54:12;100249.59;;;11.43;40.77
26719;BME280;14326;50.794;6.060;2023-04-05T08:56:41;100241.91;;;11.07;42.69
26719;BME280;14326;50.794;6.060;2023-04-05T08:59:09;100241.94;;;11.65;42.13
26719;BME280;14326;50.794;6.060;2023-04-05T09:01:46;100246.13;;;12.08;42.58
26719;BME280;14326;50.794;6.060;2023-04-05T09:04:17;100247.22;;;12.22;40.31
26719;BME280;14326;50.794;6.060;2023-04-05T09:06:44;100248.78;;;12.06;40.48
26719;BME280;14326;50.794;6.060;2023-04-05T09:09:11;100241.06;;;12.27;40.57
26719;BME280;14326;50.794;6.060;2023-04-05T09:11:39;100241.28;;;12.46;39.90
26719;BME280;14326;50.794;6.060;2023-04-05T09:14:06;100251.16;;;12.56;39.84
26719;BME280;14326;50.794;6.060;2023-04-05T09:16:36;100241.13;;;12.34;40.19
26719;BME280;14326;50.794;6.060;2023-04-05T09:19:03;100240.00;;;12.13;39.98
26719;BME280;14326;50.794;6.060;2023-04-05T09:21:58;100240.78;;;12.08;39.23
26719;BME280;14326;50.794;6.060;2023-04-05T09:24:33;100240.47;;;11.85;38.14
26719;BME280;14326;50.794;6.060;2023-04-05T09:27:05;100242.41;;;11.97;38.34
26719;BME280;14326;50.794;6.060;2023-04-05T09:29:32;100246.84;;;11.96;37.31
26719;BME280;14326;50.794;6.060;2023-04-05T09:32:00;100243.97;;;11.78;38.23
26719;BME280;14326;50.794;6.060;2023-04-05T09:34:28;100246.00;;;11.99;38.17
26719;BME280;14326;50.794;6.060;2023-04-05T09:36:56;100237.47;;;12.25;37.02
26719;BME280;14326;50.794;6.060;2023-04-05T09:39:27;100232.53;;;12.62;38.11
26719;BME280;14326;50.794;6.060;2023-04-05T09:42:05;100231.94;;;12.89;37.74
26719;BME280;14326;50.794;6.060;2023-04-05T09:44:58;100230.81;;;12.67;35.49
26719;BME280;14326;50.794;6.060;2023-04-05T09:47:38;100239.63;;;12.58;36.33
26719;BME280;14326;50.794;6.060;2023-04-05T09:50:19;100236.13;;;12.64;36.84
26719;BME280;14326;50.794;6.060;2023-04-05T09:53:12;100237.34;;;12.13;37.21
26719;BME280;14326;50.794;6.060;2023-04-05T09:55:53;100244.03;;;12.55;36.88
26719;BME280;14326;50.794;6.060;2023-04-05T09:58:49;100239.31;;;12.29;36.96
26719;BME280;14326;50.794;6.060;2023-04-05T10:01:42;100241.44;;;12.61;37.13
26719;BME280;14326;50.794;6.060;2023-04-05T10:04:10;100226.84;;;12.28;37.28
26719;BME280;14326;50.794;6.060;2023-04-05T10:06:49;100223.19;;;12.22;37.97
26719;BME280;14326;50.794;6.060;2023-04-05T10:09:26;100227.94;;;12.46;36.95
26719;BME280;14326;50.794;6.060;2023-04-05T10:12:04;100227.94;;;12.46;38.02
26719;BME280;14326;50.794;6.060;2023-04-05T10:14:49;100224.81;;;11.47;38.26
26719;BME280;14326;50.794;6.060;2023-04-05T10:17:45;100221.69;;;10.66;39.42
26719;BME280;14326;50.794;6.060;2023-04-05T10:20:21;100227.41;;;11.44;40.38
26719;BME280;14326;50.794;6.060;2023-04-05T10:22:59;100219.97;;;11.78;38.88
26719;BME280;14326;50.794;6.060;2023-04-05T10:25:33;100219.97;;;11.78;37.86
26719;BME280;14326;50.794;6.060;2023-04-05T10:28:13;100220.13;;;11.88;37.37
26719;BME280;14326;50.794;6.060;2023-04-05T10:30:46;100218.03;;;12.36;36.65
26719;BME280;14326;50.794;6.060;2023-04-05T10:33:19;100214.66;;;12.52;36.23
26719;BME280;14326;50.794;6.060;2023-04-05T10:35:57;100213.00;;;11.90;37.61
26719;BME280;14326;50.794;6.060;2023-04-05T10:38:27;100211.72;;;11.63;38.83
26719;BME280;14326;50.794;6.060;2023-04-05T10:44:01;100208.75;;;12.05;38.31
26719;BME280;14326;50.794;6.060;2023-04-05T10:46:29;100212.34;;;12.05;37.35
26719;BME280;14326;50.794;6.060;2023-04-05T10:49:00;100205.13;;;11.98;39.51
26719;BME280;14326;50.794;6.060;2023-04-05T10:51:32;100206.38;;;11.63;37.88
26719;BME280;14326;50.794;6.060;2023-04-05T10:54:03;100208.91;;;11.52;37.95
26719;BME280;14326;50.794;6.060;2023-04-05T10:56:48;100200.56;;;11.88;38.95
26719;BME280;14326;50.794;6.060;2023-04-05T10:59:17;100200.78;;;12.08;37.93
26719;BME280;14326;50.794;6.060;2023-04-05T11:01:55;100205.09;;;11.95;38.58
26719;BME280;14326;50.794;6.060;2023-04-05T11:04:29;100203.75;;;12.30;37.66
26719;BME280;14326;50.794;6.060;2023-04-05T11:07:15;100198.13;;;12.06;39.06
26719;BME280;14326;50.794;6.060;2023-04-05T11:09:54;100194.84;;;12.28;38.31
26719;BME280;14326;50.794;6.060;2023-04-05T11:15:52;100183.06;;;12.97;36.26
26719;BME280;14326;50.794;6.060;2023-04-05T11:18:44;100178.84;;;13.22;36.30
26719;BME280;14326;50.794;6.060;2023-04-05T11:21:22;100175.47;;;13.50;36.37
26719;BME280;14326;50.794;6.060;2023-04-05T11:24:02;100166.81;;;13.94;34.68
26719;BME280;14326;50.794;6.060;2023-04-05T11:26:32;100169.38;;;13.71;34.66
26719;BME280;14326;50.794;6.060;2023-04-05T11:29:15;100160.44;;;13.69;34.71
26719;BME280;14326;50.794;6.060;2023-04-05T11:31:57;100160.34;;;13.48;34.56
26719;BME280;14326;50.794;6.060;2023-04-05T11:34:25;100162.91;;;13.34;34.91
26719;BME280;14326;50.794;6.060;2023-04-05T11:36:51;100157.69;;;13.56;33.86
26719;BME280;14326;50.794;6.060;2023-04-05T11:39:24;100160.16;;;13.24;34.42
26719;BME280;14326;50.794;6.060;2023-04-05T11:41:54;100153.06;;;13.32;34.63
26719;BME280;14326;50.794;6.060;2023-04-05T11:44:22;100146.00;;;13.37;34.24
26719;BME280;14326;50.794;6.060;2023-04-05T11:46:49;100139.34;;;12.86;34.51
26719;BME280;14326;50.794;6.060;2023-04-05T11:49:20;100147.09;;;12.54;34.69
26719;BME280;14326;50.794;6.060;2023-04-05T11:51:47;100147.31;;;12.80;34.36
26719;BME280;14326;50.794;6.060;2023-04-05T11:54:27;100136.75;;;12.92;34.31
26719;BME280;14326;50.794;6.060;2023-04-05T11:56:54;100143.22;;;13.19;35.35
26719;BME280;14326;50.794;6.060;2023-04-05T11:59:27;100130.78;;;13.24;35.31
26719;BME280;14326;50.794;6.060;2023-04-05T12:01:57;100130.81;;;13.33;34.78
26719;BME280;14326;50.794;6.060;2023-04-05T12:04:26;100127.44;;;13.60;35.08
26719;BME280;14326;50.794;6.060;2023-04-05T12:07:13;100123.81;;;13.48;34.48
26719;BME280;14326;50.794;6.060;2023-04-05T12:09:58;100128.13;;;13.25;34.57
26719;BME280;14326;50.794;6.060;2023-04-05T12:12:25;100122.00;;;13.49;35.04
26719;BME280;14326;50.794;6.060;2023-04-05T12:14:57;100119.44;;;13.64;33.67
26719;BME280;14326;50.794;6.060;2023-04-05T12:17:39;100115.94;;;13.83;34.42
26719;BME280;14326;50.794;6.060;2023-04-05T12:20:10;100107.09;;;14.04;33.74
26719;BME280;14326;50.794;6.060;2023-04-05T12:22:38;100110.69;;;14.06;32.70
26719;BME280;14326;50.794;6.060;2023-04-05T12:25:07;100108.00;;;14.14;32.06
26719;BME280;14326;50.794;6.060;2023-04-05T12:27:34;100109.84;;;14.24;31.81
26719;BME280;14326;50.794;6.060;2023-04-05T12:30:05;100106.22;;;14.14;29.71
26719;BME280;14326;50.794;6.060;2023-04-05T12:32:36;100101.78;;;14.13;30.82
26719;BME280;14326;50.794;6.060;2023-04-05T12:35:16;100104.41;;;14.03;32.96
26719;BME280;14326;50.794;6.060;2023-04-05T12:38:00;100104.38;;;13.89;33.54
26719;BME280;14326;50.794;6.060;2023-04-05T12:40:33;100100.75;;;13.72;32.87
26719;BME280;14326;50.794;6.060;2023-04-05T12:43:07;100087.38;;;13.70;32.20
26719;BME280;14326;50.794;6.060;2023-04-05T12:45:44;100083.91;;;14.14;33.08
26719;BME280;14326;50.794;6.060;2023-04-05T12:48:11;100082.22;;;14.40;33.42
26719;BME280;14326;50.794;6.060;2023-04-05T12:50:48;100074.22;;;14.83;31.98
26719;BME280;14326;50.794;6.060;2023-04-05T12:53:46;100080.47;;;14.82;31.06
26719;BME280;14326;50.794;6.060;2023-04-05T12:56:22;100078.66;;;14.99;32.27
26719;BME280;14326;50.794;6.060;2023-04-05T12:59:22;100074.22;;;14.84;31.43
26719;BME280;14326;50.794;6.060;2023-04-05T13:02:10;100072.41;;;14.79;30.19
26719;BME280;14326;50.794;6.060;2023-04-05T13:04:58;100066.16;;;14.86;31.63
26719;BME280;14326;50.794;6.060;2023-04-05T13:07:35;100070.63;;;14.68;31.70
26719;BME280;14326;50.794;6.060;2023-04-05T13:10:12;100066.16;;;14.86;32.55
26719;BME280;14326;50.794;6.060;2023-04-05T13:12:45;100060.78;;;14.35;31.57
26719;BME280;14326;50.794;6.060;2023-04-05T13:15:19;100065.09;;;13.70;32.79
26719;BME280;14326;50.794;6.060;2023-04-05T13:17:55;100065.03;;;13.56;32.14
26719;BME280;14326;50.794;6.060;2023-04-05T13:20:34;100059.47;;;13.13;33.33
26719;BME280;14326;50.794;6.060;2023-04-05T13:23:04;100054.25;;;13.36;34.90
26719;BME280;14326;50.794;6.060;2023-04-05T13:25:35;100056.22;;;13.84;34.59
26719;BME280;14326;50.794;6.060;2023-04-05T13:28:09;100054.44;;;13.83;33.71
26719;BME280;14326;50.794;6.060;2023-04-05T13:30:37;100050.84;;;13.84;34.02
26719;BME280;14326;50.794;6.060;2023-04-05T13:33:04;100037.56;;;14.12;33.09
26719;BME280;14326;50.794;6.060;2023-04-05T13:35:30;100046.50;;;14.33;33.24
26719;BME280;14326;50.794;6.060;2023-04-05T13:38:00;100035.84;;;14.50;32.66
26719;BME280;14326;50.794;6.060;2023-04-05T13:40:38;100031.34;;;14.22;32.04
26719;BME280;14326;50.794;6.060;2023-04-05T13:43:16;100032.19;;;14.15;32.76
26719;BME280;14326;50.794;6.060;2023-04-05T13:45:43;100030.41;;;13.99;32.60
26719;BME280;14326;50.794;6.060;2023-04-05T13:48:24;100027.75;;;14.00;32.36
26719;BME280;14326;50.794;6.060;2023-04-05T13:51:17;100028.47;;;13.47;33.36
26719;BME280;14326;50.794;6.060;2023-04-05T13:53:47;100025.53;;;13.00;34.17
26719;BME280;14326;50.794;6.060;2023-04-05T13:56:15;100020.41;;;13.31;35.01
26719;BME280;14326;50.794;6.060;2023-04-05T13:58:42;100013.31;;;13.46;35.28
26719;BME280;14326;50.794;6.060;2023-04-05T14:01:34;100013.97;;;13.04;34.62
26719;BME280;14326;50.794;6.060;2023-04-05T14:04:07;100015.81;;;13.11;34.61
26719;BME280;14326;50.794;6.060;2023-04-05T14:06:41;100015.09;;;13.44;35.66
26719;BME280;14326;50.794;6.060;2023-04-05T14:09:16;100019.69;;;13.83;35.97
26719;BME280;14326;50.794;6.060;2023-04-05T14:12:11;100001.88;;;14.02;35.54
26719;BME280;14326;50.794;6.060;2023-04-05T14:14:55;100017.94;;;14.16;35.10
26719;BME280;14326;50.794;6.060;2023-04-05T14:17:27;100006.25;;;13.68;35.00
26719;BME280;14326;50.794;6.060;2023-04-05T14:20:09;99998.19;;;13.42;36.22
26719;BME280;14326;50.794;6.060;2023-04-05T14:22:52;99996.44;;;13.67;36.35
26719;BME280;14326;50.794;6.060;2023-04-05T14:25:31;99993.84;;;13.98;35.85
26719;BME280;14326;50.794;6.060;2023-04-05T14:28:01;99993.84;;;14.14;34.82
26719;BME280;14326;50.794;6.060;2023-04-05T14:30:43;99987.63;;;14.02;34.63
26719;BME280;14326;50.794;6.060;2023-04-05T14:33:21;99989.41;;;14.09;35.77
26719;BME280;14326;50.794;6.060;2023-04-05T14:36:05;99979.59;;;14.15;34.22
26719;BME280;14326;50.794;6.060;2023-04-05T14:38:33;99978.72;;;14.18;34.04
26719;BME280;14326;50.794;6.060;2023-04-05T14:41:04;99976.91;;;14.27;34.21
26719;BME280;14326;50.794;6.060;2023-04-05T14:44:03;99977.81;;;14.26;34.01